createdAt,value
2018-09-11T00:00:59.152Z,4.65
2018-09-11T00:03:26.921Z,6.62
2018-09-11T00:05:54.593Z,6.40
2018-09-11T00:08:22.300Z,4.10
2018-09-11T00:10:49.997Z,5.42
2018-09-11T00:13:17.719Z,5.47
2018-09-11T00:15:45.469Z,3.90
2018-09-11T00:18:13.154Z,4.30
2018-09-11T00:20:40.854Z,3.95
2018-09-11T00:23:08.519Z,3.85
2018-09-11T00:25:36.215Z,5.42
2018-09-11T00:28:04.007Z,4.90
2018-09-11T00:30:31.710Z,5.75
2018-09-11T00:32:59.436Z,3.52
2018-09-11T00:35:27.067Z,6.17
2018-09-11T00:37:54.826Z,2.87
2018-09-11T00:40:22.520Z,5.28
2018-09-11T00:42:50.321Z,3.75
2018-09-11T00:45:18.298Z,3.62
2018-09-11T00:47:46.013Z,4.47
2018-09-11T00:50:13.725Z,3.22
2018-09-11T00:52:41.402Z,2.87
2018-09-11T00:55:09.061Z,3.15
2018-09-11T00:57:36.869Z,5.15
2018-09-11T01:00:05.761Z,4.85
2018-09-11T01:02:33.485Z,4.53
2018-09-11T01:05:01.179Z,4.50
2018-09-11T01:07:28.841Z,4.50
2018-09-11T01:09:56.500Z,4.62
2018-09-11T01:12:24.161Z,4.65
2018-09-11T01:14:51.948Z,4.12
2018-09-11T01:17:19.691Z,4.72
2018-09-11T01:19:47.380Z,3.45
2018-09-11T01:22:15.073Z,5.33
2018-09-11T01:24:42.740Z,4.17
2018-09-11T01:27:10.432Z,5.53
2018-09-11T01:29:38.045Z,3.20
2018-09-11T01:32:06.277Z,4.17
2018-09-11T01:34:33.966Z,3.85
2018-09-11T01:37:01.651Z,5.72
2018-09-11T01:39:30.492Z,2.98
2018-09-11T01:41:58.197Z,3.27
2018-09-11T01:44:25.916Z,2.50
2018-09-11T01:46:53.594Z,4.58
2018-09-11T01:49:21.286Z,3.60
2018-09-11T01:51:49.682Z,4.50
2018-09-11T01:54:17.512Z,3.92
2018-09-11T01:56:45.871Z,4.70
2018-09-11T01:59:13.621Z,2.05
2018-09-11T02:01:41.404Z,4.12
2018-09-11T02:04:09.091Z,3.25
2018-09-11T02:06:36.783Z,2.00
2018-09-11T02:09:07.480Z,4.45
2018-09-11T02:11:35.186Z,6.55
2018-09-11T02:14:03.467Z,4.00
2018-09-11T02:16:31.124Z,2.70
2018-09-11T02:18:58.839Z,2.95
2018-09-11T02:21:26.505Z,3.98
2018-09-11T02:23:54.212Z,3.70
2018-09-11T02:26:21.881Z,1.15
2018-09-11T02:28:49.609Z,4.15
2018-09-11T02:31:17.346Z,2.70
2018-09-11T02:33:45.012Z,3.95
2018-09-11T02:36:12.714Z,3.45
2018-09-11T02:38:40.405Z,4.33
2018-09-11T02:41:08.097Z,4.50
2018-09-11T02:43:35.890Z,2.98
2018-09-11T02:46:03.644Z,3.67
2018-09-11T02:48:31.321Z,2.72
2018-09-11T02:50:59.004Z,5.42
2018-09-11T02:53:26.694Z,4.72
2018-09-11T02:55:54.354Z,2.70
2018-09-11T02:58:22.032Z,4.03
2018-09-11T03:00:49.720Z,4.70
2018-09-11T03:03:18.216Z,3.83
2018-09-11T03:05:45.909Z,2.85
2018-09-11T03:08:13.592Z,4.83
2018-09-11T03:10:41.302Z,3.72
2018-09-11T03:13:08.984Z,3.67
2018-09-11T03:15:37.657Z,3.60
2018-09-11T03:18:05.365Z,4.20
2018-09-11T03:20:33.054Z,2.98
2018-09-11T03:23:01.298Z,3.83
2018-09-11T03:25:30.034Z,3.33
2018-09-11T03:27:57.788Z,3.05
2018-09-11T03:30:25.481Z,3.33
2018-09-11T03:32:53.347Z,3.20
2018-09-11T03:35:21.070Z,3.10
2018-09-11T03:37:48.753Z,3.92
2018-09-11T03:40:16.528Z,5.95
2018-09-11T03:42:44.224Z,4.00
2018-09-11T03:45:12.029Z,5.58
2018-09-11T03:47:41.430Z,5.75
2018-09-11T03:50:09.129Z,4.85
2018-09-11T03:52:36.767Z,5.22
2018-09-11T03:55:04.856Z,3.33
2018-09-11T03:57:32.517Z,5.62
2018-09-11T04:00:00.203Z,2.50
2018-09-11T04:02:27.899Z,3.83
2018-09-11T04:04:55.594Z,4.65
2018-09-11T04:07:23.327Z,6.28
2018-09-11T04:09:51.970Z,6.30
2018-09-11T04:12:19.760Z,4.83
2018-09-11T04:14:47.470Z,3.00
2018-09-11T04:17:15.192Z,3.67
2018-09-11T04:19:42.848Z,5.65
2018-09-11T04:22:10.601Z,5.97
2018-09-11T04:24:38.363Z,4.50
2018-09-11T04:27:06.166Z,4.83
2018-09-11T04:29:33.859Z,5.65
2018-09-11T04:32:01.576Z,6.00
2018-09-11T04:34:29.362Z,4.70
2018-09-11T04:36:57.081Z,4.67
2018-09-11T04:39:24.801Z,6.05
2018-09-11T04:41:53.389Z,6.05
2018-09-11T04:44:21.104Z,4.83
2018-09-11T04:46:48.851Z,4.37
2018-09-11T04:49:17.558Z,4.08
2018-09-11T04:51:45.307Z,5.08
2018-09-11T04:54:13.010Z,7.47
2018-09-11T04:56:40.852Z,6.42
2018-09-11T04:59:08.620Z,6.28
2018-09-11T05:01:36.341Z,3.87
2018-09-11T05:04:04.378Z,3.33
2018-09-11T05:06:32.580Z,5.22
2018-09-11T05:09:00.300Z,3.08
2018-09-11T05:11:28.027Z,7.12
2018-09-11T05:13:55.759Z,3.77
2018-09-11T05:16:23.529Z,5.87
2018-09-11T05:18:51.382Z,5.55
2018-09-11T05:21:19.473Z,3.95
2018-09-11T05:23:47.267Z,6.60
2018-09-11T05:26:14.985Z,5.22
2018-09-11T05:28:42.621Z,4.60
2018-09-11T05:31:11.907Z,4.37
2018-09-11T05:33:39.612Z,3.35
2018-09-11T05:36:09.107Z,4.30
2018-09-11T05:38:36.857Z,3.83
2018-09-11T05:41:04.685Z,3.33
2018-09-11T05:43:32.457Z,1.87
2018-09-11T05:46:00.192Z,4.37
2018-09-11T05:48:27.960Z,4.72
2018-09-11T05:50:55.930Z,4.12
2018-09-11T05:53:23.956Z,3.02
2018-09-11T05:55:52.563Z,5.53
2018-09-11T05:58:20.774Z,2.95
2018-09-11T06:00:48.722Z,6.72
2018-09-11T06:03:16.696Z,4.87
2018-09-11T06:05:44.689Z,1.40
2018-09-11T06:08:12.464Z,2.92
2018-09-11T06:10:40.225Z,3.02
2018-09-11T06:13:09.804Z,7.10
2018-09-11T06:15:37.636Z,3.37
2018-09-11T06:18:05.541Z,5.10
2018-09-11T06:20:33.347Z,2.47
2018-09-11T06:23:01.755Z,2.25
2018-09-11T06:25:29.569Z,2.55
2018-09-11T06:27:57.626Z,2.37
2018-09-11T06:30:25.430Z,2.77
2018-09-11T06:32:53.160Z,3.12
2018-09-11T06:35:21.572Z,1.90
2018-09-11T06:37:50.806Z,3.08
2018-09-11T06:40:18.811Z,3.47
2018-09-11T06:42:46.616Z,2.12
2018-09-11T06:45:14.376Z,3.25
2018-09-11T06:47:43.118Z,4.62
2018-09-11T06:50:10.873Z,2.83
2018-09-11T06:52:38.746Z,3.20
2018-09-11T06:55:06.544Z,1.65
2018-09-11T06:57:34.265Z,4.53
2018-09-11T07:00:02.998Z,3.33
2018-09-11T07:02:30.805Z,3.10
2018-09-11T07:04:58.535Z,2.37
2018-09-11T07:07:26.245Z,3.35
2018-09-11T07:09:54.608Z,2.42
2018-09-11T07:12:22.387Z,5.42
2018-09-11T07:14:50.154Z,3.67
2018-09-11T07:17:17.946Z,3.15
2018-09-11T07:19:45.839Z,3.35
2018-09-11T07:22:13.561Z,3.42
2018-09-11T07:24:41.348Z,2.15
2018-09-11T07:27:09.074Z,4.65
2018-09-11T07:29:37.814Z,4.53
2018-09-11T07:32:08.069Z,3.52
2018-09-11T07:34:35.809Z,5.05
2018-09-11T07:37:03.653Z,3.65
2018-09-11T07:39:31.365Z,3.52
2018-09-11T07:41:59.363Z,3.65
2018-09-11T07:44:27.858Z,3.62
2018-09-11T07:46:56.492Z,2.55
2018-09-11T07:49:24.213Z,4.50
2018-09-11T07:51:52.074Z,3.62
2018-09-11T07:54:20.392Z,2.70
2018-09-11T07:56:48.156Z,3.25
2018-09-11T07:59:16.156Z,5.50
2018-09-11T08:01:43.960Z,2.87
2018-09-11T08:04:11.677Z,2.42
2018-09-11T08:06:39.392Z,4.15
2018-09-11T08:09:09.425Z,6.72
2018-09-11T08:11:37.161Z,4.33
2018-09-11T08:14:04.953Z,5.67
2018-09-11T08:16:32.678Z,4.40
2018-09-11T08:19:00.390Z,2.52
2018-09-11T08:21:28.474Z,2.83
2018-09-11T08:23:56.208Z,3.45
2018-09-11T08:26:24.206Z,3.42
2018-09-11T08:28:52.007Z,4.40
2018-09-11T08:31:19.734Z,3.70
2018-09-11T08:33:47.840Z,4.30
2018-09-11T08:36:15.597Z,4.65
2018-09-11T08:38:43.544Z,3.85
2018-09-11T08:41:11.334Z,3.77
2018-09-11T08:43:39.404Z,4.78
2018-09-11T08:48:44.019Z,4.12
2018-09-11T08:51:11.745Z,4.40
2018-09-11T08:53:40.966Z,4.25
2018-09-11T08:56:09.436Z,5.50
2018-09-11T08:58:37.457Z,3.30
2018-09-11T09:01:06.133Z,4.67
2018-09-11T09:03:33.911Z,2.35
2018-09-11T09:06:01.740Z,3.90
2018-09-11T09:08:29.556Z,4.80
2018-09-11T09:10:57.355Z,4.35
2018-09-11T09:13:25.117Z,5.05
2018-09-11T09:15:52.987Z,3.85
2018-09-11T09:18:20.848Z,5.00
2018-09-11T09:20:48.681Z,4.30
2018-09-11T09:23:17.677Z,1.65
2018-09-11T09:25:45.462Z,3.25
2018-09-11T09:28:13.332Z,5.35
2018-09-11T09:30:41.599Z,3.72
2018-09-11T09:33:09.781Z,3.47
2018-09-11T09:35:37.864Z,4.60
2018-09-11T09:38:05.700Z,2.52
2018-09-11T09:40:33.420Z,4.03
2018-09-11T09:43:01.452Z,4.10
2018-09-11T09:45:29.180Z,6.90
2018-09-11T09:47:57.075Z,6.87
2018-09-11T09:50:24.927Z,3.67
2018-09-11T09:52:52.682Z,12.88
2018-09-11T09:55:20.806Z,4.05
2018-09-11T09:57:48.613Z,2.83
2018-09-11T10:00:22.163Z,3.20
2018-09-11T10:02:52.125Z,3.85
2018-09-11T10:05:20.117Z,2.80
2018-09-11T10:07:48.628Z,2.87
2018-09-11T10:10:16.580Z,3.10
2018-09-11T10:12:44.437Z,2.80
2018-09-11T10:15:12.173Z,2.42
2018-09-11T10:17:40.045Z,2.50
2018-09-11T10:20:07.801Z,3.50
2018-09-11T10:22:35.877Z,4.47
2018-09-11T10:25:04.242Z,1.75
2018-09-11T10:27:32.014Z,5.70
2018-09-11T10:29:59.783Z,4.87
2018-09-11T10:32:28.034Z,4.92
2018-09-11T10:34:55.843Z,3.33
2018-09-11T10:37:23.866Z,3.77
2018-09-11T10:39:52.058Z,2.65
2018-09-11T10:42:19.952Z,3.25
2018-09-11T10:44:49.341Z,4.03
2018-09-11T10:47:17.260Z,3.83
2018-09-11T10:49:45.067Z,5.25
2018-09-11T10:52:14.502Z,5.00
2018-09-11T10:54:44.191Z,3.45
2018-09-11T10:57:12.886Z,3.77
2018-09-11T10:59:40.780Z,5.67
2018-09-11T11:02:09.696Z,7.50
2018-09-11T11:04:38.738Z,3.40
2018-09-11T11:07:07.665Z,4.42
2018-09-11T11:09:35.527Z,3.85
2018-09-11T11:12:03.945Z,6.35
2018-09-11T11:14:33.005Z,6.08
2018-09-11T11:17:03.556Z,4.72
2018-09-11T11:19:31.994Z,4.00
2018-09-11T11:22:01.246Z,7.35
2018-09-11T11:24:33.554Z,3.52
2018-09-11T11:27:03.995Z,3.98
2018-09-11T11:29:32.255Z,5.03
2018-09-11T11:32:00.221Z,3.60
2018-09-11T11:34:28.404Z,3.90
2018-09-11T11:36:57.150Z,3.87
2018-09-11T11:39:26.649Z,6.28
2018-09-11T11:41:55.322Z,4.78
2018-09-11T11:44:23.440Z,4.62
2018-09-11T11:46:52.149Z,2.83
2018-09-11T11:49:24.372Z,3.25
2018-09-11T11:51:53.766Z,4.65
2018-09-11T11:54:22.410Z,4.15
2018-09-11T11:56:50.417Z,1.55
2018-09-11T11:59:19.237Z,3.95
2018-09-11T12:01:47.342Z,2.02
2018-09-11T12:04:15.425Z,3.87
2018-09-11T12:06:44.640Z,1.72
2018-09-11T12:09:12.602Z,7.20
2018-09-11T12:11:41.679Z,3.72
2018-09-11T12:14:11.409Z,2.95
2018-09-11T12:16:40.078Z,4.97
2018-09-11T12:19:07.906Z,5.35
2018-09-11T12:21:36.124Z,3.55
2018-09-11T12:24:05.384Z,4.55
2018-09-11T12:26:33.508Z,3.67
2018-09-11T12:29:01.204Z,6.58
2018-09-11T12:31:28.989Z,5.70
2018-09-11T12:33:56.756Z,5.25
2018-09-11T12:36:24.914Z,2.67
2018-09-11T12:38:52.756Z,3.75
2018-09-11T12:41:20.717Z,6.45
2018-09-11T12:43:48.826Z,4.62
2018-09-11T12:46:24.601Z,5.58
2018-09-11T12:48:52.175Z,2.95
2018-09-11T12:51:20.058Z,3.00
2018-09-11T12:53:47.916Z,6.67
2018-09-11T12:56:15.698Z,2.52
2018-09-11T12:58:43.425Z,4.22
2018-09-11T13:01:11.162Z,4.40
2018-09-11T13:03:38.882Z,3.95
2018-09-11T13:06:06.688Z,4.05
2018-09-11T13:08:34.473Z,5.53
2018-09-11T13:11:02.263Z,4.75
2018-09-11T13:13:30.180Z,3.45
2018-09-11T13:15:58.345Z,2.87
2018-09-11T13:18:26.967Z,3.05
2018-09-11T13:20:54.785Z,7.10
2018-09-11T13:23:22.560Z,4.30
2018-09-11T13:25:50.325Z,4.20
2018-09-11T13:28:18.042Z,8.03
2018-09-11T13:30:46.030Z,3.17
2018-09-11T13:33:13.705Z,5.83
2018-09-11T13:35:41.446Z,3.35
2018-09-11T13:38:09.526Z,4.72
2018-09-11T13:40:37.206Z,6.40
2018-09-11T13:43:04.981Z,4.25
2018-09-11T13:45:32.741Z,4.17
2018-09-11T13:48:00.642Z,4.28
2018-09-11T13:50:28.477Z,3.45
2018-09-11T13:52:56.333Z,2.92
2018-09-11T13:55:23.910Z,3.77
2018-09-11T13:57:51.820Z,2.77
2018-09-11T14:00:19.727Z,4.37
2018-09-11T14:02:58.816Z,4.50
2018-09-11T14:05:40.733Z,1.98
2018-09-11T14:08:13.304Z,4.62
2018-09-11T14:10:42.222Z,2.80
2018-09-11T14:13:11.060Z,5.72
2018-09-11T14:15:39.718Z,2.90
2018-09-11T14:18:07.381Z,5.97
2018-09-11T14:20:35.148Z,4.65
2018-09-11T14:23:02.872Z,5.55
2018-09-11T14:25:30.667Z,4.78
2018-09-11T14:27:58.537Z,4.05
2018-09-11T14:33:00.892Z,3.22
2018-09-11T14:35:29.620Z,5.22
2018-09-11T14:37:58.715Z,3.45
2018-09-11T14:40:26.586Z,5.22
2018-09-11T14:42:54.312Z,4.15
2018-09-11T14:45:22.552Z,6.12
2018-09-11T14:47:51.275Z,5.50
2018-09-11T14:50:19.327Z,6.25
2018-09-11T14:52:47.552Z,4.50
2018-09-11T14:55:15.548Z,3.55
2018-09-11T14:57:43.467Z,3.37
2018-09-11T15:00:11.419Z,3.33
2018-09-11T15:02:39.204Z,2.87
2018-09-11T15:05:07.104Z,3.05
2018-09-11T15:07:34.867Z,5.37
2018-09-11T15:10:03.279Z,5.15
2018-09-11T15:12:31.593Z,2.37
2018-09-11T15:15:00.337Z,3.47
2018-09-11T15:17:29.616Z,3.52
2018-09-11T15:19:57.959Z,3.60
2018-09-11T15:22:26.298Z,3.52
2018-09-11T15:24:54.373Z,5.12
2018-09-11T15:27:22.634Z,4.67
2018-09-11T15:29:51.570Z,5.65
2018-09-11T15:32:20.005Z,3.42
2018-09-11T15:34:48.118Z,6.20
2018-09-11T15:37:16.426Z,5.28
2018-09-11T15:39:44.599Z,4.22
2018-09-11T15:42:12.742Z,7.42
2018-09-11T15:44:41.147Z,5.45
2018-09-11T15:47:09.700Z,5.30
2018-09-11T15:49:37.432Z,4.10
2018-09-11T15:52:05.281Z,5.87
2018-09-11T15:54:33.240Z,6.25
2018-09-11T15:57:01.797Z,4.12
2018-09-11T15:59:29.716Z,4.65
2018-09-11T16:01:57.743Z,6.80
2018-09-11T16:04:26.905Z,3.35
2018-09-11T16:06:55.270Z,2.72
2018-09-11T16:09:23.054Z,4.58
2018-09-11T16:11:50.936Z,5.00
2018-09-11T16:14:18.876Z,4.55
2018-09-11T16:16:46.929Z,6.35
2018-09-11T16:19:14.759Z,3.35
2018-09-11T16:21:43.533Z,3.60
2018-09-11T16:24:11.359Z,5.28
2018-09-11T16:26:40.227Z,4.12
2018-09-11T16:29:08.122Z,4.30
2018-09-11T16:31:35.909Z,4.37
2018-09-11T16:34:04.239Z,5.92
2018-09-11T16:36:32.013Z,3.42
2018-09-11T16:38:59.919Z,2.95
2018-09-11T16:41:27.630Z,2.62
2018-09-11T16:43:56.141Z,4.28
2018-09-11T16:46:24.853Z,5.45
2018-09-11T16:48:52.544Z,5.30
2018-09-11T16:51:20.514Z,6.78
2018-09-11T16:53:48.943Z,4.25
2018-09-11T16:56:17.036Z,4.72
2018-09-11T16:58:44.864Z,4.47
2018-09-11T17:01:13.618Z,3.65
2018-09-11T17:03:42.043Z,7.40
2018-09-11T17:06:10.110Z,2.75
2018-09-11T17:08:38.460Z,4.55
2018-09-11T17:11:06.362Z,3.58
2018-09-11T17:13:34.287Z,3.05
2018-09-11T17:16:02.872Z,8.53
2018-09-11T17:18:31.694Z,5.00
2018-09-11T17:21:00.310Z,4.70
2018-09-11T17:23:29.700Z,4.95
2018-09-11T17:25:57.915Z,6.47
2018-09-11T17:28:25.990Z,3.22
2018-09-11T17:30:54.372Z,6.05
2018-09-11T17:33:26.024Z,6.08
2018-09-11T17:35:55.682Z,6.45
2018-09-11T17:38:23.755Z,4.25
2018-09-11T17:40:52.119Z,5.15
2018-09-11T17:43:25.005Z,5.72
2018-09-11T17:45:53.342Z,5.58
2018-09-11T17:48:22.934Z,5.17
2018-09-11T17:50:52.376Z,6.08
2018-09-11T17:53:21.211Z,2.90
2018-09-11T17:55:51.195Z,6.97
2018-09-11T17:58:19.685Z,3.92
2018-09-11T18:00:48.005Z,4.62
2018-09-11T18:03:16.896Z,5.65
2018-09-11T18:05:46.360Z,5.12
2018-09-11T18:08:14.253Z,2.65
2018-09-11T18:10:42.406Z,5.42
2018-09-11T18:13:10.297Z,5.20
2018-09-11T18:15:38.837Z,4.42
2018-09-11T18:18:07.433Z,4.85
2018-09-11T18:20:36.112Z,5.28
2018-09-11T18:23:04.695Z,6.95
2018-09-11T18:25:32.965Z,4.72
2018-09-11T18:28:01.895Z,3.98
2018-09-11T18:30:30.378Z,3.72
2018-09-11T18:32:58.449Z,6.85
2018-09-11T18:35:26.262Z,4.65
2018-09-11T18:45:12.572Z,5.15
2018-09-11T18:47:41.175Z,7.70
2018-09-11T18:50:09.117Z,6.28
2018-09-11T18:52:38.475Z,7.08
2018-09-11T18:55:08.007Z,4.60
2018-09-11T18:57:36.119Z,7.37
2018-09-11T19:00:03.994Z,4.20
2018-09-11T19:02:31.941Z,6.92
2018-09-11T19:05:00.320Z,5.85
2018-09-11T19:07:29.069Z,3.65
2018-09-11T19:09:56.954Z,8.50
2018-09-11T19:12:25.784Z,7.55
2018-09-11T19:14:53.684Z,7.60
2018-09-11T19:17:21.611Z,7.72
2018-09-11T19:19:50.242Z,6.05
2018-09-11T19:22:19.007Z,6.70
2018-09-11T19:24:47.764Z,8.65
2018-09-11T19:27:17.551Z,6.85
2018-09-11T19:29:47.388Z,6.05
2018-09-11T19:32:15.871Z,7.00
2018-09-11T19:34:44.477Z,5.97
2018-09-11T19:37:14.671Z,8.40
2018-09-11T19:39:43.004Z,7.53
2018-09-11T19:42:11.517Z,8.53
2018-09-11T19:44:42.359Z,8.38
2018-09-11T19:47:10.198Z,7.92
2018-09-11T19:49:40.615Z,7.45
2018-09-11T19:52:10.105Z,4.45
2018-09-11T19:54:38.726Z,7.60
2018-09-11T19:57:06.894Z,8.63
2018-09-11T19:59:35.427Z,9.90
2018-09-11T20:02:03.822Z,9.35
2018-09-11T20:04:31.746Z,11.57
2018-09-11T20:06:59.858Z,8.55
2018-09-11T20:09:28.841Z,8.80
2018-09-11T20:11:56.588Z,9.48
2018-09-11T20:14:24.400Z,10.30
2018-09-11T20:16:52.731Z,12.80
2018-09-11T20:19:21.386Z,9.28
2018-09-11T20:21:50.692Z,9.25
2018-09-11T20:24:20.887Z,8.58
2018-09-11T20:26:50.292Z,11.38
2018-09-11T20:29:18.834Z,8.80
2018-09-11T20:31:46.641Z,12.05
2018-09-11T20:34:15.235Z,8.38
2018-09-11T20:36:45.408Z,13.83
2018-09-11T20:39:13.274Z,10.40
2018-09-11T20:41:42.658Z,7.17
2018-09-11T20:44:12.082Z,8.68
2018-09-11T20:46:40.565Z,8.50
2018-09-11T20:49:10.053Z,10.53
2018-09-11T20:51:38.204Z,11.63
2018-09-11T20:54:08.322Z,10.32
2018-09-11T20:56:36.491Z,9.10
2018-09-11T20:59:04.764Z,9.50
2018-09-11T21:01:33.532Z,8.50
2018-09-11T21:04:01.283Z,9.15
2018-09-11T21:06:29.407Z,9.08
2018-09-11T21:08:57.345Z,10.68
2018-09-11T21:11:25.163Z,9.65
2018-09-11T21:13:53.209Z,10.23
2018-09-11T21:16:21.047Z,10.78
2018-09-11T21:18:48.826Z,10.75
2018-09-11T21:21:16.730Z,9.33
2018-09-11T21:23:44.674Z,10.08
2018-09-11T21:26:13.944Z,10.43
2018-09-11T21:28:42.039Z,11.18
2018-09-11T21:31:11.409Z,9.48
2018-09-11T21:33:39.115Z,10.25
2018-09-11T21:36:07.477Z,8.98
2018-09-11T21:38:35.209Z,8.28
2018-09-11T21:41:03.238Z,8.65
2018-09-11T21:43:30.998Z,7.87
2018-09-11T21:45:59.035Z,10.28
2018-09-11T21:48:26.733Z,11.25
2018-09-11T21:50:54.466Z,10.80
2018-09-11T21:53:22.236Z,11.68
2018-09-11T21:55:49.934Z,12.88
2018-09-11T21:58:20.738Z,12.35
2018-09-11T22:00:54.269Z,12.33
2018-09-11T22:03:22.020Z,10.65
2018-09-11T22:05:49.725Z,15.10
2018-09-11T22:08:17.589Z,11.80
2018-09-11T22:10:46.005Z,12.95
2018-09-11T22:13:13.653Z,12.98
2018-09-11T22:28:43.024Z,11.25
2018-09-11T22:31:10.747Z,13.58
2018-09-11T22:33:38.456Z,11.55
2018-09-11T22:36:06.777Z,11.38
2018-09-11T22:38:34.495Z,11.90
2018-09-11T22:41:02.214Z,11.88
2018-09-11T22:43:30.020Z,9.68
2018-09-11T22:45:57.840Z,9.65
2018-09-11T22:48:25.552Z,11.57
2018-09-11T22:50:53.343Z,9.40
2018-09-11T22:53:21.134Z,10.08
2018-09-11T22:55:48.874Z,8.85
2018-09-11T22:58:24.756Z,10.32
2018-09-11T23:00:52.553Z,10.78
2018-09-11T23:03:20.251Z,8.23
2018-09-11T23:05:48.126Z,6.70
2018-09-11T23:08:15.916Z,8.05
2018-09-11T23:10:44.091Z,9.48
2018-09-11T23:13:12.332Z,9.23
2018-09-11T23:15:40.036Z,8.35
2018-09-11T23:18:08.383Z,8.65
2018-09-11T23:20:36.105Z,7.42
2018-09-11T23:23:03.837Z,7.42
2018-09-11T23:25:31.519Z,8.40
2018-09-11T23:27:59.721Z,6.95
2018-09-11T23:30:27.454Z,8.73
2018-09-11T23:32:55.183Z,7.75
2018-09-11T23:35:22.872Z,7.50
2018-09-11T23:37:51.044Z,8.50
2018-09-11T23:40:20.086Z,6.47
2018-09-11T23:42:47.785Z,6.97
2018-09-11T23:45:15.562Z,8.45
2018-09-11T23:47:43.249Z,8.30
2018-09-11T23:50:10.988Z,8.05
2018-09-11T23:52:38.739Z,5.05
2018-09-11T23:55:06.474Z,4.28
2018-09-11T23:57:34.184Z,8.28
